Orient, New York
Current Conditions -  °F | °C
As of 12:56 PM on Saturday 25 Oct 2014 (Local Time) from KGON Reporting Station
Clear Clear  
Wind Chill: 62°   Ceiling: Unl
Heat Index: 62°   Visibility: 10mi
Dew Point: 45°   Wind: 12mph
Humidity: 53%   Direction: 230°SW
Pressure: 29.72"   Gusts: NA
Location:  41.14°N, 72.3°W
Report Text: KGON 251656Z 23010KT 10SM CLR 17/07 A2972 RMK AO2 SLP065 T01670072
Loading
Personal Weather Stations






























Interactive Weather Map
Tropical Storm Tracking
New forecast layout! Learn more

10-Day Weather Forecast

Advertisements
Track Severe Weather on mobile